sensor_id;sensor_type;location;lat;lon;timestamp;P1;durP1;ratioP1;P2;durP2;ratioP2
8683;SDS011;4379;59.744;18.206;2023-03-12T00:00:14;1.50;;;1.40;;
8683;SDS011;4379;59.744;18.206;2023-03-12T00:02:44;1.60;;;1.50;;
8683;SDS011;4379;59.744;18.206;2023-03-12T00:05:11;1.57;;;1.40;;
8683;SDS011;4379;59.744;18.206;2023-03-12T00:07:39;1.33;;;1.10;;
8683;SDS011;4379;59.744;18.206;2023-03-12T00:10:06;1.67;;;1.57;;
8683;SDS011;4379;59.744;18.206;2023-03-12T00:12:34;1.50;;;1.40;;
8683;SDS011;4379;59.744;18.206;2023-03-12T00:15:02;1.20;;;1.20;;
8683;SDS011;4379;59.744;18.206;2023-03-12T00:17:30;1.40;;;1.30;;
8683;SDS011;4379;59.744;18.206;2023-03-12T00:19:57;1.30;;;1.20;;
8683;SDS011;4379;59.744;18.206;2023-03-12T00:22:27;1.53;;;1.40;;
8683;SDS011;4379;59.744;18.206;2023-03-12T00:24:57;1.40;;;1.30;;
8683;SDS011;4379;59.744;18.206;2023-03-12T00:27:26;1.53;;;1.43;;
8683;SDS011;4379;59.744;18.206;2023-03-12T00:29:56;1.60;;;1.50;;
8683;SDS011;4379;59.744;18.206;2023-03-12T00:32:25;1.10;;;1.10;;
8683;SDS011;4379;59.744;18.206;2023-03-12T00:34:54;1.00;;;1.00;;
8683;SDS011;4379;59.744;18.206;2023-03-12T00:37:22;1.23;;;1.23;;
8683;SDS011;4379;59.744;18.206;2023-03-12T00:39:49;1.57;;;1.47;;
8683;SDS011;4379;59.744;18.206;2023-03-12T00:42:20;2.67;;;1.30;;
8683;SDS011;4379;59.744;18.206;2023-03-12T00:44:49;1.67;;;1.57;;
8683;SDS011;4379;59.744;18.206;2023-03-12T00:47:17;1.00;;;1.00;;
8683;SDS011;4379;59.744;18.206;2023-03-12T00:49:44;1.90;;;1.30;;
8683;SDS011;4379;59.744;18.206;2023-03-12T00:52:12;2.00;;;1.27;;
8683;SDS011;4379;59.744;18.206;2023-03-12T00:54:42;1.33;;;1.23;;
8683;SDS011;4379;59.744;18.206;2023-03-12T00:57:11;1.20;;;1.20;;
8683;SDS011;4379;59.744;18.206;2023-03-12T00:59:40;1.17;;;1.17;;
8683;SDS011;4379;59.744;18.206;2023-03-12T01:02:10;1.33;;;1.23;;
8683;SDS011;4379;59.744;18.206;2023-03-12T01:04:38;1.07;;;1.07;;
8683;SDS011;4379;59.744;18.206;2023-03-12T01:07:05;1.87;;;1.20;;
8683;SDS011;4379;59.744;18.206;2023-03-12T01:09:33;1.10;;;1.10;;
8683;SDS011;4379;59.744;18.206;2023-03-12T01:12:01;0.90;;;0.90;;
8683;SDS011;4379;59.744;18.206;2023-03-12T01:14:28;1.27;;;1.20;;
8683;SDS011;4379;59.744;18.206;2023-03-12T01:16:57;1.87;;;1.47;;
8683;SDS011;4379;59.744;18.206;2023-03-12T01:19:25;1.70;;;1.20;;
8683;SDS011;4379;59.744;18.206;2023-03-12T01:21:52;1.50;;;1.40;;
8683;SDS011;4379;59.744;18.206;2023-03-12T01:24:19;1.60;;;1.17;;
8683;SDS011;4379;59.744;18.206;2023-03-12T01:26:48;1.17;;;1.17;;
8683;SDS011;4379;59.744;18.206;2023-03-12T01:29:17;1.87;;;1.20;;
8683;SDS011;4379;59.744;18.206;2023-03-12T01:31:44;1.40;;;1.40;;
8683;SDS011;4379;59.744;18.206;2023-03-12T01:34:12;1.50;;;1.40;;
8683;SDS011;4379;59.744;18.206;2023-03-12T01:36:40;2.10;;;1.90;;
8683;SDS011;4379;59.744;18.206;2023-03-12T01:39:07;2.20;;;1.80;;
8683;SDS011;4379;59.744;18.206;2023-03-12T01:41:34;1.90;;;1.80;;
8683;SDS011;4379;59.744;18.206;2023-03-12T01:44:01;1.73;;;1.60;;
8683;SDS011;4379;59.744;18.206;2023-03-12T01:46:36;2.00;;;1.57;;
8683;SDS011;4379;59.744;18.206;2023-03-12T01:49:13;2.00;;;1.53;;
8683;SDS011;4379;59.744;18.206;2023-03-12T01:52:00;1.40;;;1.30;;
8683;SDS011;4379;59.744;18.206;2023-03-12T01:54:42;1.50;;;1.40;;
8683;SDS011;4379;59.744;18.206;2023-03-12T01:57:50;1.47;;;1.30;;
8683;SDS011;4379;59.744;18.206;2023-03-12T02:00:15;1.60;;;1.50;;
8683;SDS011;4379;59.744;18.206;2023-03-12T02:02:45;1.30;;;1.30;;
8683;SDS011;4379;59.744;18.206;2023-03-12T02:05:24;2.83;;;1.30;;
8683;SDS011;4379;59.744;18.206;2023-03-12T02:07:57;1.70;;;1.60;;
8683;SDS011;4379;59.744;18.206;2023-03-12T02:10:25;1.43;;;1.33;;
8683;SDS011;4379;59.744;18.206;2023-03-12T02:12:53;1.60;;;1.50;;
8683;SDS011;4379;59.744;18.206;2023-03-12T02:15:22;3.20;;;1.50;;
8683;SDS011;4379;59.744;18.206;2023-03-12T02:17:49;1.70;;;1.60;;
8683;SDS011;4379;59.744;18.206;2023-03-12T02:20:19;1.80;;;1.63;;
8683;SDS011;4379;59.744;18.206;2023-03-12T02:25:41;1.60;;;1.37;;
8683;SDS011;4379;59.744;18.206;2023-03-12T02:28:16;1.30;;;1.20;;
8683;SDS011;4379;59.744;18.206;2023-03-12T02:30:46;1.50;;;1.40;;
8683;SDS011;4379;59.744;18.206;2023-03-12T02:33:15;1.60;;;1.50;;
8683;SDS011;4379;59.744;18.206;2023-03-12T02:35:44;1.57;;;1.37;;
8683;SDS011;4379;59.744;18.206;2023-03-12T02:43:44;1.33;;;1.23;;
8683;SDS011;4379;59.744;18.206;2023-03-12T02:46:13;1.30;;;1.20;;
8683;SDS011;4379;59.744;18.206;2023-03-12T02:48:41;1.60;;;1.50;;
8683;SDS011;4379;59.744;18.206;2023-03-12T02:51:08;1.43;;;1.33;;
8683;SDS011;4379;59.744;18.206;2023-03-12T02:53:36;6.77;;;1.70;;
8683;SDS011;4379;59.744;18.206;2023-03-12T02:56:03;1.53;;;1.43;;
8683;SDS011;4379;59.744;18.206;2023-03-12T02:58:32;1.33;;;1.20;;
8683;SDS011;4379;59.744;18.206;2023-03-12T03:00:59;1.93;;;1.53;;
8683;SDS011;4379;59.744;18.206;2023-03-12T03:03:26;1.60;;;1.50;;
8683;SDS011;4379;59.744;18.206;2023-03-12T03:05:53;6.07;;;2.20;;
8683;SDS011;4379;59.744;18.206;2023-03-12T03:08:21;2.77;;;1.33;;
8683;SDS011;4379;59.744;18.206;2023-03-12T03:10:49;2.67;;;1.40;;
8683;SDS011;4379;59.744;18.206;2023-03-12T03:13:18;2.37;;;1.50;;
8683;SDS011;4379;59.744;18.206;2023-03-12T03:15:47;1.73;;;1.63;;
8683;SDS011;4379;59.744;18.206;2023-03-12T03:18:14;2.03;;;1.93;;
8683;SDS011;4379;59.744;18.206;2023-03-12T03:20:42;6.23;;;1.63;;
8683;SDS011;4379;59.744;18.206;2023-03-12T03:23:10;2.77;;;2.37;;
8683;SDS011;4379;59.744;18.206;2023-03-12T03:25:37;5.43;;;2.37;;
8683;SDS011;4379;59.744;18.206;2023-03-12T03:28:04;2.90;;;2.47;;
8683;SDS011;4379;59.744;18.206;2023-03-12T03:30:31;2.70;;;2.00;;
8683;SDS011;4379;59.744;18.206;2023-03-12T03:32:59;2.50;;;2.10;;
8683;SDS011;4379;59.744;18.206;2023-03-12T03:35:26;2.40;;;2.20;;
8683;SDS011;4379;59.744;18.206;2023-03-12T03:37:53;3.13;;;2.40;;
8683;SDS011;4379;59.744;18.206;2023-03-12T03:40:21;3.70;;;2.43;;
8683;SDS011;4379;59.744;18.206;2023-03-12T03:42:48;4.60;;;2.13;;
8683;SDS011;4379;59.744;18.206;2023-03-12T03:45:15;2.13;;;1.93;;
8683;SDS011;4379;59.744;18.206;2023-03-12T03:47:43;2.40;;;1.80;;
8683;SDS011;4379;59.744;18.206;2023-03-12T03:50:12;2.20;;;2.00;;
8683;SDS011;4379;59.744;18.206;2023-03-12T03:52:39;1.90;;;1.80;;
8683;SDS011;4379;59.744;18.206;2023-03-12T03:55:07;2.63;;;2.27;;
8683;SDS011;4379;59.744;18.206;2023-03-12T03:57:34;2.13;;;2.00;;
8683;SDS011;4379;59.744;18.206;2023-03-12T04:00:02;2.17;;;2.03;;
8683;SDS011;4379;59.744;18.206;2023-03-12T04:02:34;2.90;;;1.50;;
8683;SDS011;4379;59.744;18.206;2023-03-12T04:05:01;3.47;;;2.03;;
8683;SDS011;4379;59.744;18.206;2023-03-12T04:07:29;2.40;;;1.77;;
8683;SDS011;4379;59.744;18.206;2023-03-12T04:09:57;2.10;;;2.00;;
8683;SDS011;4379;59.744;18.206;2023-03-12T04:12:25;2.23;;;1.90;;
8683;SDS011;4379;59.744;18.206;2023-03-12T04:14:53;3.63;;;2.10;;
8683;SDS011;4379;59.744;18.206;2023-03-12T04:17:21;1.67;;;1.57;;
8683;SDS011;4379;59.744;18.206;2023-03-12T04:19:48;1.73;;;1.60;;
8683;SDS011;4379;59.744;18.206;2023-03-12T04:22:16;1.83;;;1.73;;
8683;SDS011;4379;59.744;18.206;2023-03-12T04:24:43;3.17;;;1.80;;
8683;SDS011;4379;59.744;18.206;2023-03-12T04:27:10;3.00;;;2.10;;
8683;SDS011;4379;59.744;18.206;2023-03-12T04:29:37;2.50;;;2.13;;
8683;SDS011;4379;59.744;18.206;2023-03-12T04:32:06;1.80;;;1.70;;
8683;SDS011;4379;59.744;18.206;2023-03-12T04:34:33;2.03;;;1.80;;
8683;SDS011;4379;59.744;18.206;2023-03-12T04:37:01;3.40;;;1.73;;
8683;SDS011;4379;59.744;18.206;2023-03-12T04:39:28;1.80;;;1.70;;
8683;SDS011;4379;59.744;18.206;2023-03-12T04:41:55;2.07;;;1.87;;
8683;SDS011;4379;59.744;18.206;2023-03-12T04:44:23;3.90;;;1.43;;
8683;SDS011;4379;59.744;18.206;2023-03-12T04:46:50;1.90;;;1.80;;
8683;SDS011;4379;59.744;18.206;2023-03-12T04:49:17;3.77;;;1.90;;
8683;SDS011;4379;59.744;18.206;2023-03-12T04:51:44;1.70;;;1.60;;
8683;SDS011;4379;59.744;18.206;2023-03-12T04:54:12;1.60;;;1.50;;
8683;SDS011;4379;59.744;18.206;2023-03-12T04:56:39;2.27;;;2.17;;
8683;SDS011;4379;59.744;18.206;2023-03-12T04:59:06;1.90;;;1.80;;
8683;SDS011;4379;59.744;18.206;2023-03-12T05:01:35;1.93;;;1.83;;
8683;SDS011;4379;59.744;18.206;2023-03-12T05:04:03;1.80;;;1.70;;
8683;SDS011;4379;59.744;18.206;2023-03-12T05:06:31;3.27;;;1.83;;
8683;SDS011;4379;59.744;18.206;2023-03-12T05:08:59;1.87;;;1.77;;
8683;SDS011;4379;59.744;18.206;2023-03-12T05:11:26;1.77;;;1.67;;
8683;SDS011;4379;59.744;18.206;2023-03-12T05:13:54;1.97;;;1.73;;
8683;SDS011;4379;59.744;18.206;2023-03-12T05:16:21;2.07;;;1.97;;
8683;SDS011;4379;59.744;18.206;2023-03-12T05:18:49;6.57;;;2.10;;
8683;SDS011;4379;59.744;18.206;2023-03-12T05:21:17;1.83;;;1.73;;
8683;SDS011;4379;59.744;18.206;2023-03-12T05:23:45;1.90;;;1.80;;
8683;SDS011;4379;59.744;18.206;2023-03-12T05:26:17;1.87;;;1.70;;
8683;SDS011;4379;59.744;18.206;2023-03-12T05:28:57;1.90;;;1.80;;
8683;SDS011;4379;59.744;18.206;2023-03-12T05:31:26;2.17;;;1.97;;
8683;SDS011;4379;59.744;18.206;2023-03-12T05:33:54;3.10;;;1.80;;
8683;SDS011;4379;59.744;18.206;2023-03-12T05:36:21;2.43;;;2.20;;
8683;SDS011;4379;59.744;18.206;2023-03-12T05:38:49;4.67;;;1.90;;
8683;SDS011;4379;59.744;18.206;2023-03-12T05:41:20;4.40;;;2.27;;
8683;SDS011;4379;59.744;18.206;2023-03-12T05:43:51;2.17;;;2.07;;
8683;SDS011;4379;59.744;18.206;2023-03-12T05:46:19;2.23;;;2.03;;
8683;SDS011;4379;59.744;18.206;2023-03-12T05:48:46;4.43;;;2.07;;
8683;SDS011;4379;59.744;18.206;2023-03-12T05:51:14;2.40;;;2.20;;
8683;SDS011;4379;59.744;18.206;2023-03-12T05:53:41;3.17;;;2.30;;
8683;SDS011;4379;59.744;18.206;2023-03-12T05:56:13;2.43;;;2.27;;
8683;SDS011;4379;59.744;18.206;2023-03-12T05:58:42;2.87;;;2.57;;
8683;SDS011;4379;59.744;18.206;2023-03-12T06:01:11;2.87;;;2.67;;
8683;SDS011;4379;59.744;18.206;2023-03-12T06:03:58;2.93;;;2.67;;
8683;SDS011;4379;59.744;18.206;2023-03-12T06:06:25;4.40;;;2.30;;
8683;SDS011;4379;59.744;18.206;2023-03-12T06:08:55;5.70;;;2.83;;
8683;SDS011;4379;59.744;18.206;2023-03-12T06:11:22;3.47;;;2.30;;
8683;SDS011;4379;59.744;18.206;2023-03-12T06:13:49;2.43;;;2.23;;
8683;SDS011;4379;59.744;18.206;2023-03-12T06:16:17;4.20;;;2.60;;
8683;SDS011;4379;59.744;18.206;2023-03-12T06:18:56;2.90;;;2.70;;
8683;SDS011;4379;59.744;18.206;2023-03-12T06:21:26;8.27;;;2.53;;
8683;SDS011;4379;59.744;18.206;2023-03-12T06:23:56;4.77;;;2.43;;
8683;SDS011;4379;59.744;18.206;2023-03-12T06:26:24;2.30;;;2.10;;
8683;SDS011;4379;59.744;18.206;2023-03-12T06:28:53;7.57;;;2.60;;
8683;SDS011;4379;59.744;18.206;2023-03-12T06:31:20;11.27;;;3.37;;
8683;SDS011;4379;59.744;18.206;2023-03-12T06:33:48;5.97;;;2.83;;
8683;SDS011;4379;59.744;18.206;2023-03-12T06:36:16;10.47;;;3.50;;
8683;SDS011;4379;59.744;18.206;2023-03-12T06:38:43;3.97;;;2.60;;
8683;SDS011;4379;59.744;18.206;2023-03-12T06:41:12;9.40;;;2.90;;
8683;SDS011;4379;59.744;18.206;2023-03-12T06:43:42;3.40;;;2.60;;
8683;SDS011;4379;59.744;18.206;2023-03-12T06:46:12;4.80;;;2.60;;
8683;SDS011;4379;59.744;18.206;2023-03-12T06:48:42;3.23;;;2.60;;
8683;SDS011;4379;59.744;18.206;2023-03-12T06:51:12;3.03;;;2.50;;
8683;SDS011;4379;59.744;18.206;2023-03-12T06:53:41;5.07;;;2.73;;
8683;SDS011;4379;59.744;18.206;2023-03-12T06:56:08;2.80;;;2.20;;
8683;SDS011;4379;59.744;18.206;2023-03-12T06:58:36;3.43;;;2.43;;
8683;SDS011;4379;59.744;18.206;2023-03-12T07:01:04;4.50;;;2.70;;
8683;SDS011;4379;59.744;18.206;2023-03-12T07:03:32;2.57;;;2.37;;
8683;SDS011;4379;59.744;18.206;2023-03-12T07:05:59;2.53;;;2.40;;
8683;SDS011;4379;59.744;18.206;2023-03-12T07:08:27;4.67;;;2.50;;
8683;SDS011;4379;59.744;18.206;2023-03-12T07:10:57;4.40;;;2.47;;
8683;SDS011;4379;59.744;18.206;2023-03-12T07:13:27;3.63;;;3.00;;
8683;SDS011;4379;59.744;18.206;2023-03-12T07:15:55;2.80;;;2.57;;
8683;SDS011;4379;59.744;18.206;2023-03-12T07:18:22;4.83;;;2.90;;
8683;SDS011;4379;59.744;18.206;2023-03-12T07:20:50;3.93;;;2.40;;
8683;SDS011;4379;59.744;18.206;2023-03-12T07:23:18;6.60;;;2.37;;
8683;SDS011;4379;59.744;18.206;2023-03-12T07:25:45;3.43;;;2.60;;
8683;SDS011;4379;59.744;18.206;2023-03-12T07:28:13;10.57;;;2.53;;
8683;SDS011;4379;59.744;18.206;2023-03-12T07:30:41;5.13;;;2.67;;
8683;SDS011;4379;59.744;18.206;2023-03-12T07:33:10;2.50;;;2.30;;
8683;SDS011;4379;59.744;18.206;2023-03-12T07:35:39;3.80;;;2.20;;
8683;SDS011;4379;59.744;18.206;2023-03-12T07:38:08;2.33;;;2.13;;
8683;SDS011;4379;59.744;18.206;2023-03-12T07:40:35;2.37;;;2.17;;
8683;SDS011;4379;59.744;18.206;2023-03-12T07:43:03;2.93;;;2.13;;
8683;SDS011;4379;59.744;18.206;2023-03-12T07:45:37;2.57;;;2.20;;
8683;SDS011;4379;59.744;18.206;2023-03-12T07:48:05;2.10;;;2.00;;
8683;SDS011;4379;59.744;18.206;2023-03-12T07:50:35;2.30;;;2.10;;
8683;SDS011;4379;59.744;18.206;2023-03-12T07:53:03;2.00;;;1.80;;
8683;SDS011;4379;59.744;18.206;2023-03-12T07:55:32;1.87;;;1.77;;
8683;SDS011;4379;59.744;18.206;2023-03-12T07:58:00;2.10;;;2.00;;
8683;SDS011;4379;59.744;18.206;2023-03-12T08:00:28;3.57;;;2.30;;
8683;SDS011;4379;59.744;18.206;2023-03-12T08:02:56;1.60;;;1.50;;
8683;SDS011;4379;59.744;18.206;2023-03-12T08:05:24;1.87;;;1.77;;
8683;SDS011;4379;59.744;18.206;2023-03-12T08:07:52;1.57;;;1.47;;
8683;SDS011;4379;59.744;18.206;2023-03-12T08:10:20;1.57;;;1.47;;
8683;SDS011;4379;59.744;18.206;2023-03-12T08:12:48;1.83;;;1.70;;
8683;SDS011;4379;59.744;18.206;2023-03-12T08:15:15;1.53;;;1.43;;
8683;SDS011;4379;59.744;18.206;2023-03-12T08:17:43;1.70;;;1.60;;
8683;SDS011;4379;59.744;18.206;2023-03-12T08:20:10;1.77;;;1.67;;
8683;SDS011;4379;59.744;18.206;2023-03-12T08:22:38;2.10;;;1.67;;
8683;SDS011;4379;59.744;18.206;2023-03-12T08:25:07;2.40;;;1.80;;
8683;SDS011;4379;59.744;18.206;2023-03-12T08:27:35;1.23;;;1.13;;
8683;SDS011;4379;59.744;18.206;2023-03-12T08:30:04;2.80;;;1.83;;
8683;SDS011;4379;59.744;18.206;2023-03-12T08:32:32;1.53;;;1.27;;
8683;SDS011;4379;59.744;18.206;2023-03-12T08:35:00;1.73;;;1.40;;
8683;SDS011;4379;59.744;18.206;2023-03-12T08:37:27;0.60;;;0.60;;
8683;SDS011;4379;59.744;18.206;2023-03-12T08:39:56;0.97;;;0.97;;
8683;SDS011;4379;59.744;18.206;2023-03-12T08:42:23;1.10;;;0.73;;
8683;SDS011;4379;59.744;18.206;2023-03-12T08:44:50;0.80;;;0.80;;
8683;SDS011;4379;59.744;18.206;2023-03-12T08:47:18;1.30;;;1.30;;
8683;SDS011;4379;59.744;18.206;2023-03-12T08:49:45;0.83;;;0.83;;
8683;SDS011;4379;59.744;18.206;2023-03-12T08:52:12;0.60;;;0.60;;
8683;SDS011;4379;59.744;18.206;2023-03-12T08:54:40;1.20;;;0.53;;
8683;SDS011;4379;59.744;18.206;2023-03-12T08:57:07;0.50;;;0.50;;
8683;SDS011;4379;59.744;18.206;2023-03-12T08:59:35;0.80;;;0.80;;
8683;SDS011;4379;59.744;18.206;2023-03-12T09:02:02;0.70;;;0.70;;
8683;SDS011;4379;59.744;18.206;2023-03-12T09:04:30;0.67;;;0.60;;
8683;SDS011;4379;59.744;18.206;2023-03-12T09:06:59;0.53;;;0.53;;
8683;SDS011;4379;59.744;18.206;2023-03-12T09:09:27;0.50;;;0.50;;
8683;SDS011;4379;59.744;18.206;2023-03-12T09:11:58;2.57;;;0.83;;
8683;SDS011;4379;59.744;18.206;2023-03-12T09:14:25;1.10;;;0.87;;
8683;SDS011;4379;59.744;18.206;2023-03-12T09:17:12;0.70;;;0.70;;
8683;SDS011;4379;59.744;18.206;2023-03-12T09:19:40;1.00;;;0.90;;
8683;SDS011;4379;59.744;18.206;2023-03-12T09:22:07;1.63;;;1.10;;
8683;SDS011;4379;59.744;18.206;2023-03-12T09:24:35;0.60;;;0.60;;
8683;SDS011;4379;59.744;18.206;2023-03-12T09:27:02;0.80;;;0.80;;
8683;SDS011;4379;59.744;18.206;2023-03-12T09:29:30;0.77;;;0.77;;
8683;SDS011;4379;59.744;18.206;2023-03-12T09:31:57;0.73;;;0.73;;
8683;SDS011;4379;59.744;18.206;2023-03-12T09:34:25;0.67;;;0.67;;
8683;SDS011;4379;59.744;18.206;2023-03-12T09:36:52;0.60;;;0.60;;
8683;SDS011;4379;59.744;18.206;2023-03-12T09:39:20;0.60;;;0.60;;
8683;SDS011;4379;59.744;18.206;2023-03-12T09:41:48;0.60;;;0.60;;
8683;SDS011;4379;59.744;18.206;2023-03-12T09:44:18;0.50;;;0.50;;
8683;SDS011;4379;59.744;18.206;2023-03-12T09:46:56;0.50;;;0.50;;
8683;SDS011;4379;59.744;18.206;2023-03-12T09:49:39;1.80;;;0.60;;
8683;SDS011;4379;59.744;18.206;2023-03-12T09:52:31;0.60;;;0.60;;
8683;SDS011;4379;59.744;18.206;2023-03-12T09:57:40;0.47;;;0.47;;
8683;SDS011;4379;59.744;18.206;2023-03-12T10:00:31;0.87;;;0.57;;
8683;SDS011;4379;59.744;18.206;2023-03-12T10:08:13;0.50;;;0.50;;
8683;SDS011;4379;59.744;18.206;2023-03-12T10:11:10;0.83;;;0.63;;
8683;SDS011;4379;59.744;18.206;2023-03-12T10:13:45;0.40;;;0.40;;
8683;SDS011;4379;59.744;18.206;2023-03-12T10:19:37;0.53;;;0.50;;
8683;SDS011;4379;59.744;18.206;2023-03-12T10:27:34;0.33;;;0.33;;
8683;SDS011;4379;59.744;18.206;2023-03-12T10:30:23;0.73;;;0.47;;
8683;SDS011;4379;59.744;18.206;2023-03-12T10:33:00;0.30;;;0.30;;
8683;SDS011;4379;59.744;18.206;2023-03-12T10:35:32;0.60;;;0.60;;
8683;SDS011;4379;59.744;18.206;2023-03-12T10:38:00;0.30;;;0.30;;
8683;SDS011;4379;59.744;18.206;2023-03-12T10:40:31;0.40;;;0.40;;
8683;SDS011;4379;59.744;18.206;2023-03-12T10:43:01;0.50;;;0.50;;
8683;SDS011;4379;59.744;18.206;2023-03-12T10:45:33;0.30;;;0.30;;
8683;SDS011;4379;59.744;18.206;2023-03-12T10:48:05;0.37;;;0.37;;
8683;SDS011;4379;59.744;18.206;2023-03-12T10:50:38;0.30;;;0.30;;
8683;SDS011;4379;59.744;18.206;2023-03-12T10:53:48;0.80;;;0.53;;
8683;SDS011;4379;59.744;18.206;2023-03-12T10:55:59;0.47;;;0.47;;
8683;SDS011;4379;59.744;18.206;2023-03-12T10:58:30;0.40;;;0.40;;
8683;SDS011;4379;59.744;18.206;2023-03-12T11:00:59;0.30;;;0.30;;
8683;SDS011;4379;59.744;18.206;2023-03-12T11:03:28;0.53;;;0.53;;
8683;SDS011;4379;59.744;18.206;2023-03-12T11:06:00;0.30;;;0.30;;
8683;SDS011;4379;59.744;18.206;2023-03-12T11:08:34;0.30;;;0.30;;
8683;SDS011;4379;59.744;18.206;2023-03-12T11:11:03;0.30;;;0.30;;
8683;SDS011;4379;59.744;18.206;2023-03-12T11:13:32;0.40;;;0.40;;
8683;SDS011;4379;59.744;18.206;2023-03-12T11:16:03;1.27;;;0.53;;
8683;SDS011;4379;59.744;18.206;2023-03-12T11:18:52;0.87;;;0.30;;
8683;SDS011;4379;59.744;18.206;2023-03-12T11:21:30;0.40;;;0.40;;
8683;SDS011;4379;59.744;18.206;2023-03-12T11:26:45;0.40;;;0.40;;
8683;SDS011;4379;59.744;18.206;2023-03-12T11:34:41;0.73;;;0.33;;
8683;SDS011;4379;59.744;18.206;2023-03-12T11:37:14;0.50;;;0.50;;
8683;SDS011;4379;59.744;18.206;2023-03-12T11:48:49;0.57;;;0.50;;
8683;SDS011;4379;59.744;18.206;2023-03-12T11:51:44;0.47;;;0.40;;
8683;SDS011;4379;59.744;18.206;2023-03-12T12:06:03;0.43;;;0.43;;
8683;SDS011;4379;59.744;18.206;2023-03-12T12:11:27;0.63;;;0.30;;
8683;SDS011;4379;59.744;18.206;2023-03-12T12:20:15;0.33;;;0.30;;
8683;SDS011;4379;59.744;18.206;2023-03-12T12:22:50;0.30;;;0.30;;
8683;SDS011;4379;59.744;18.206;2023-03-12T12:25:27;0.47;;;0.40;;
8683;SDS011;4379;59.744;18.206;2023-03-12T12:34:11;0.57;;;0.40;;
8683;SDS011;4379;59.744;18.206;2023-03-12T12:36:43;0.67;;;0.37;;
8683;SDS011;4379;59.744;18.206;2023-03-12T12:39:18;0.83;;;0.57;;
8683;SDS011;4379;59.744;18.206;2023-03-12T12:42:04;0.40;;;0.40;;
8683;SDS011;4379;59.744;18.206;2023-03-12T12:44:36;0.30;;;0.30;;
8683;SDS011;4379;59.744;18.206;2023-03-12T12:47:09;0.97;;;0.40;;
8683;SDS011;4379;59.744;18.206;2023-03-12T12:52:18;0.30;;;0.30;;
8683;SDS011;4379;59.744;18.206;2023-03-12T12:54:50;1.33;;;0.50;;
8683;SDS011;4379;59.744;18.206;2023-03-12T12:57:30;0.30;;;0.30;;
8683;SDS011;4379;59.744;18.206;2023-03-12T13:02:50;0.30;;;0.30;;
8683;SDS011;4379;59.744;18.206;2023-03-12T13:08:04;0.30;;;0.30;;
8683;SDS011;4379;59.744;18.206;2023-03-12T13:15:43;0.20;;;0.20;;
8683;SDS011;4379;59.744;18.206;2023-03-12T13:23:23;1.27;;;0.40;;
8683;SDS011;4379;59.744;18.206;2023-03-12T13:28:58;0.30;;;0.30;;
8683;SDS011;4379;59.744;18.206;2023-03-12T13:31:39;0.83;;;0.40;;
8683;SDS011;4379;59.744;18.206;2023-03-12T13:36:49;0.43;;;0.43;;
8683;SDS011;4379;59.744;18.206;2023-03-12T13:39:20;0.30;;;0.20;;
8683;SDS011;4379;59.744;18.206;2023-03-12T13:41:58;0.20;;;0.20;;
8683;SDS011;4379;59.744;18.206;2023-03-12T13:49:40;2.00;;;0.30;;
8683;SDS011;4379;59.744;18.206;2023-03-12T13:55:04;0.50;;;0.30;;
8683;SDS011;4379;59.744;18.206;2023-03-12T13:57:53;0.67;;;0.40;;
8683;SDS011;4379;59.744;18.206;2023-03-12T14:00:37;0.20;;;0.20;;
8683;SDS011;4379;59.744;18.206;2023-03-12T14:03:17;0.67;;;0.37;;
8683;SDS011;4379;59.744;18.206;2023-03-12T14:06:19;0.73;;;0.30;;
8683;SDS011;4379;59.744;18.206;2023-03-12T14:17:14;0.40;;;0.27;;
8683;SDS011;4379;59.744;18.206;2023-03-12T14:19:49;0.73;;;0.30;;
8683;SDS011;4379;59.744;18.206;2023-03-12T14:22:21;0.37;;;0.30;;
8683;SDS011;4379;59.744;18.206;2023-03-12T14:24:55;0.33;;;0.33;;
8683;SDS011;4379;59.744;18.206;2023-03-12T14:27:26;0.33;;;0.30;;
8683;SDS011;4379;59.744;18.206;2023-03-12T14:29:56;0.33;;;0.30;;
8683;SDS011;4379;59.744;18.206;2023-03-12T14:32:37;1.07;;;0.30;;
8683;SDS011;4379;59.744;18.206;2023-03-12T14:38:19;0.30;;;0.30;;
8683;SDS011;4379;59.744;18.206;2023-03-12T14:40:56;0.40;;;0.40;;
8683;SDS011;4379;59.744;18.206;2023-03-12T14:43:30;0.47;;;0.20;;
8683;SDS011;4379;59.744;18.206;2023-03-12T14:46:03;0.67;;;0.30;;
8683;SDS011;4379;59.744;18.206;2023-03-12T14:48:33;0.23;;;0.23;;
8683;SDS011;4379;59.744;18.206;2023-03-12T14:51:03;0.40;;;0.30;;
8683;SDS011;4379;59.744;18.206;2023-03-12T14:53:35;0.93;;;0.50;;
8683;SDS011;4379;59.744;18.206;2023-03-12T14:58:50;0.87;;;0.30;;
8683;SDS011;4379;59.744;18.206;2023-03-12T15:01:19;1.00;;;0.30;;
8683;SDS011;4379;59.744;18.206;2023-03-12T15:03:50;0.40;;;0.40;;
8683;SDS011;4379;59.744;18.206;2023-03-12T15:06:27;0.50;;;0.30;;
8683;SDS011;4379;59.744;18.206;2023-03-12T15:08:55;1.40;;;0.40;;
8683;SDS011;4379;59.744;18.206;2023-03-12T15:11:24;0.40;;;0.30;;
8683;SDS011;4379;59.744;18.206;2023-03-12T15:14:00;0.60;;;0.60;;
8683;SDS011;4379;59.744;18.206;2023-03-12T15:16:40;0.23;;;0.23;;
8683;SDS011;4379;59.744;18.206;2023-03-12T15:19:10;0.30;;;0.30;;
8683;SDS011;4379;59.744;18.206;2023-03-12T15:21:39;0.30;;;0.30;;
8683;SDS011;4379;59.744;18.206;2023-03-12T15:24:08;0.57;;;0.30;;
8683;SDS011;4379;59.744;18.206;2023-03-12T15:26:39;0.30;;;0.30;;
8683;SDS011;4379;59.744;18.206;2023-03-12T15:31:44;0.40;;;0.37;;
8683;SDS011;4379;59.744;18.206;2023-03-12T15:34:27;0.20;;;0.20;;
8683;SDS011;4379;59.744;18.206;2023-03-12T15:36:59;0.10;;;0.10;;
8683;SDS011;4379;59.744;18.206;2023-03-12T15:42:03;0.37;;;0.30;;
8683;SDS011;4379;59.744;18.206;2023-03-12T15:44:42;0.30;;;0.30;;
8683;SDS011;4379;59.744;18.206;2023-03-12T15:47:12;0.30;;;0.30;;
8683;SDS011;4379;59.744;18.206;2023-03-12T15:49:48;0.40;;;0.40;;
8683;SDS011;4379;59.744;18.206;2023-03-12T15:55:01;0.30;;;0.30;;
8683;SDS011;4379;59.744;18.206;2023-03-12T15:57:28;0.30;;;0.30;;
8683;SDS011;4379;59.744;18.206;2023-03-12T16:02:51;0.17;;;0.17;;
8683;SDS011;4379;59.744;18.206;2023-03-12T16:05:30;0.23;;;0.23;;
8683;SDS011;4379;59.744;18.206;2023-03-12T16:08:00;0.10;;;0.10;;
8683;SDS011;4379;59.744;18.206;2023-03-12T16:10:36;0.20;;;0.20;;
8683;SDS011;4379;59.744;18.206;2023-03-12T16:13:04;0.47;;;0.33;;
8683;SDS011;4379;59.744;18.206;2023-03-12T16:15:35;0.20;;;0.20;;
8683;SDS011;4379;59.744;18.206;2023-03-12T16:18:03;0.20;;;0.20;;
8683;SDS011;4379;59.744;18.206;2023-03-12T16:20:31;0.20;;;0.20;;
8683;SDS011;4379;59.744;18.206;2023-03-12T16:22:58;0.33;;;0.27;;
8683;SDS011;4379;59.744;18.206;2023-03-12T16:25:25;0.30;;;0.30;;
8683;SDS011;4379;59.744;18.206;2023-03-12T16:27:54;0.20;;;0.20;;
8683;SDS011;4379;59.744;18.206;2023-03-12T16:30:30;0.73;;;0.30;;
8683;SDS011;4379;59.744;18.206;2023-03-12T16:33:00;0.13;;;0.13;;
8683;SDS011;4379;59.744;18.206;2023-03-12T16:35:34;0.20;;;0.20;;
8683;SDS011;4379;59.744;18.206;2023-03-12T16:38:01;0.20;;;0.20;;
8683;SDS011;4379;59.744;18.206;2023-03-12T16:40:33;0.93;;;0.30;;
8683;SDS011;4379;59.744;18.206;2023-03-12T16:43:02;1.60;;;0.20;;
8683;SDS011;4379;59.744;18.206;2023-03-12T16:45:33;0.23;;;0.20;;
8683;SDS011;4379;59.744;18.206;2023-03-12T16:48:04;0.20;;;0.20;;
8683;SDS011;4379;59.744;18.206;2023-03-12T16:50:32;2.13;;;0.40;;
8683;SDS011;4379;59.744;18.206;2023-03-12T16:52:59;0.20;;;0.20;;
8683;SDS011;4379;59.744;18.206;2023-03-12T16:55:29;0.27;;;0.27;;
8683;SDS011;4379;59.744;18.206;2023-03-12T16:58:09;1.03;;;0.30;;
8683;SDS011;4379;59.744;18.206;2023-03-12T17:00:39;0.20;;;0.20;;
8683;SDS011;4379;59.744;18.206;2023-03-12T17:03:07;0.70;;;0.20;;
8683;SDS011;4379;59.744;18.206;2023-03-12T17:05:38;0.30;;;0.20;;
8683;SDS011;4379;59.744;18.206;2023-03-12T17:08:05;0.57;;;0.30;;
8683;SDS011;4379;59.744;18.206;2023-03-12T17:10:33;0.30;;;0.30;;
8683;SDS011;4379;59.744;18.206;2023-03-12T17:13:00;0.53;;;0.40;;
8683;SDS011;4379;59.744;18.206;2023-03-12T17:15:27;0.83;;;0.30;;
8683;SDS011;4379;59.744;18.206;2023-03-12T17:17:59;0.83;;;0.30;;
8683;SDS011;4379;59.744;18.206;2023-03-12T17:20:29;0.37;;;0.37;;
8683;SDS011;4379;59.744;18.206;2023-03-12T17:23:02;0.50;;;0.33;;
8683;SDS011;4379;59.744;18.206;2023-03-12T17:25:31;0.50;;;0.50;;